sensor_id;sensor_type;location;lat;lon;timestamp;temperature;humidity
5621;DHT22;2832;50.864;12.186;2022-07-06T00:00:05;24.60;86.80
5621;DHT22;2832;50.864;12.186;2022-07-06T00:02:33;24.60;87.00
5621;DHT22;2832;50.864;12.186;2022-07-06T00:05:02;24.60;87.30
5621;DHT22;2832;50.864;12.186;2022-07-06T00:07:30;24.50;87.40
5621;DHT22;2832;50.864;12.186;2022-07-06T00:09:57;24.50;87.40
5621;DHT22;2832;50.864;12.186;2022-07-06T00:12:25;24.50;87.50
5621;DHT22;2832;50.864;12.186;2022-07-06T00:14:54;24.50;87.70
5621;DHT22;2832;50.864;12.186;2022-07-06T00:17:22;24.50;87.80
5621;DHT22;2832;50.864;12.186;2022-07-06T00:19:51;24.50;87.90
5621;DHT22;2832;50.864;12.186;2022-07-06T00:22:18;24.50;88.10
5621;DHT22;2832;50.864;12.186;2022-07-06T00:24:46;24.50;88.10
5621;DHT22;2832;50.864;12.186;2022-07-06T00:27:14;24.40;88.00
5621;DHT22;2832;50.864;12.186;2022-07-06T00:29:41;24.40;88.10
5621;DHT22;2832;50.864;12.186;2022-07-06T00:32:12;24.40;88.10
5621;DHT22;2832;50.864;12.186;2022-07-06T00:34:39;24.40;88.30
5621;DHT22;2832;50.864;12.186;2022-07-06T00:37:07;24.40;88.50
5621;DHT22;2832;50.864;12.186;2022-07-06T00:39:35;24.30;88.50
5621;DHT22;2832;50.864;12.186;2022-07-06T00:42:03;24.30;88.50
5621;DHT22;2832;50.864;12.186;2022-07-06T00:44:30;24.30;88.80
5621;DHT22;2832;50.864;12.186;2022-07-06T00:46:59;24.30;88.90
5621;DHT22;2832;50.864;12.186;2022-07-06T00:49:29;24.30;89.10
5621;DHT22;2832;50.864;12.186;2022-07-06T00:52:14;24.30;89.20
5621;DHT22;2832;50.864;12.186;2022-07-06T00:54:43;24.30;89.30
5621;DHT22;2832;50.864;12.186;2022-07-06T00:57:10;24.30;89.40
5621;DHT22;2832;50.864;12.186;2022-07-06T00:59:38;24.30;89.50
5621;DHT22;2832;50.864;12.186;2022-07-06T01:02:06;24.30;89.50
5621;DHT22;2832;50.864;12.186;2022-07-06T01:04:35;24.30;89.60
5621;DHT22;2832;50.864;12.186;2022-07-06T01:07:03;24.30;89.80
5621;DHT22;2832;50.864;12.186;2022-07-06T01:09:31;24.20;89.90
5621;DHT22;2832;50.864;12.186;2022-07-06T01:11:58;24.20;90.00
5621;DHT22;2832;50.864;12.186;2022-07-06T01:14:26;24.20;90.10
5621;DHT22;2832;50.864;12.186;2022-07-06T01:16:54;24.20;90.10
5621;DHT22;2832;50.864;12.186;2022-07-06T01:19:22;24.20;90.10
5621;DHT22;2832;50.864;12.186;2022-07-06T01:21:51;24.20;90.20
5621;DHT22;2832;50.864;12.186;2022-07-06T01:24:19;24.20;90.20
5621;DHT22;2832;50.864;12.186;2022-07-06T01:26:47;24.20;90.50
5621;DHT22;2832;50.864;12.186;2022-07-06T01:29:15;24.20;90.20
5621;DHT22;2832;50.864;12.186;2022-07-06T01:31:47;24.20;90.30
5621;DHT22;2832;50.864;12.186;2022-07-06T01:34:16;24.10;90.30
5621;DHT22;2832;50.864;12.186;2022-07-06T01:36:45;24.10;90.30
5621;DHT22;2832;50.864;12.186;2022-07-06T01:39:14;24.10;90.30
5621;DHT22;2832;50.864;12.186;2022-07-06T01:41:42;24.10;90.30
5621;DHT22;2832;50.864;12.186;2022-07-06T01:44:09;24.10;90.30
5621;DHT22;2832;50.864;12.186;2022-07-06T01:46:38;24.10;90.40
5621;DHT22;2832;50.864;12.186;2022-07-06T01:49:05;24.10;90.40
5621;DHT22;2832;50.864;12.186;2022-07-06T01:51:33;24.10;90.40
5621;DHT22;2832;50.864;12.186;2022-07-06T01:54:01;24.00;90.40
5621;DHT22;2832;50.864;12.186;2022-07-06T01:56:30;24.00;90.50
5621;DHT22;2832;50.864;12.186;2022-07-06T01:58:57;24.00;90.50
5621;DHT22;2832;50.864;12.186;2022-07-06T02:01:25;24.00;90.50
5621;DHT22;2832;50.864;12.186;2022-07-06T02:03:52;24.00;90.50
5621;DHT22;2832;50.864;12.186;2022-07-06T02:06:20;24.00;90.50
5621;DHT22;2832;50.864;12.186;2022-07-06T02:08:48;24.00;90.50
5621;DHT22;2832;50.864;12.186;2022-07-06T02:11:18;23.90;90.50
5621;DHT22;2832;50.864;12.186;2022-07-06T02:13:47;23.90;90.60
5621;DHT22;2832;50.864;12.186;2022-07-06T02:16:15;23.90;90.60
5621;DHT22;2832;50.864;12.186;2022-07-06T02:18:42;23.90;90.60
5621;DHT22;2832;50.864;12.186;2022-07-06T02:21:10;23.90;90.60
5621;DHT22;2832;50.864;12.186;2022-07-06T02:23:38;23.90;90.50
5621;DHT22;2832;50.864;12.186;2022-07-06T02:26:06;23.90;90.50
5621;DHT22;2832;50.864;12.186;2022-07-06T02:28:34;23.90;90.50
5621;DHT22;2832;50.864;12.186;2022-07-06T02:31:03;23.90;90.50
5621;DHT22;2832;50.864;12.186;2022-07-06T02:33:31;23.90;90.40
5621;DHT22;2832;50.864;12.186;2022-07-06T02:35:58;23.80;90.30
5621;DHT22;2832;50.864;12.186;2022-07-06T02:38:26;23.80;90.30
5621;DHT22;2832;50.864;12.186;2022-07-06T02:40:54;23.80;90.20
5621;DHT22;2832;50.864;12.186;2022-07-06T02:43:22;23.80;90.10
5621;DHT22;2832;50.864;12.186;2022-07-06T02:45:49;23.70;90.10
5621;DHT22;2832;50.864;12.186;2022-07-06T02:48:19;23.70;90.10
5621;DHT22;2832;50.864;12.186;2022-07-06T02:50:47;23.70;90.10
5621;DHT22;2832;50.864;12.186;2022-07-06T02:53:15;23.70;90.00
5621;DHT22;2832;50.864;12.186;2022-07-06T02:55:44;23.60;90.00
5621;DHT22;2832;50.864;12.186;2022-07-06T02:58:12;23.60;89.90
5621;DHT22;2832;50.864;12.186;2022-07-06T03:00:39;23.60;89.80
5621;DHT22;2832;50.864;12.186;2022-07-06T03:03:07;23.60;89.80
5621;DHT22;2832;50.864;12.186;2022-07-06T03:05:36;23.60;89.80
5621;DHT22;2832;50.864;12.186;2022-07-06T03:08:04;23.50;89.60
5621;DHT22;2832;50.864;12.186;2022-07-06T03:10:32;23.60;89.60
5621;DHT22;2832;50.864;12.186;2022-07-06T03:12:59;23.50;89.20
5621;DHT22;2832;50.864;12.186;2022-07-06T03:15:27;23.30;89.10
5621;DHT22;2832;50.864;12.186;2022-07-06T03:17:55;23.20;88.80
5621;DHT22;2832;50.864;12.186;2022-07-06T03:20:24;23.10;88.70
5621;DHT22;2832;50.864;12.186;2022-07-06T03:22:55;23.00;88.40
5621;DHT22;2832;50.864;12.186;2022-07-06T03:25:24;23.00;88.20
5621;DHT22;2832;50.864;12.186;2022-07-06T03:27:52;22.90;87.90
5621;DHT22;2832;50.864;12.186;2022-07-06T03:30:20;22.90;87.90
5621;DHT22;2832;50.864;12.186;2022-07-06T03:32:47;22.80;88.10
5621;DHT22;2832;50.864;12.186;2022-07-06T03:35:15;22.70;88.30
5621;DHT22;2832;50.864;12.186;2022-07-06T03:37:43;22.70;88.40
5621;DHT22;2832;50.864;12.186;2022-07-06T03:40:12;22.60;88.10
5621;DHT22;2832;50.864;12.186;2022-07-06T03:42:41;22.50;87.80
5621;DHT22;2832;50.864;12.186;2022-07-06T03:45:09;22.50;87.60
5621;DHT22;2832;50.864;12.186;2022-07-06T03:47:37;22.50;87.70
5621;DHT22;2832;50.864;12.186;2022-07-06T03:50:07;22.40;87.70
5621;DHT22;2832;50.864;12.186;2022-07-06T03:52:35;22.40;88.20
5621;DHT22;2832;50.864;12.186;2022-07-06T03:55:07;22.30;87.90
5621;DHT22;2832;50.864;12.186;2022-07-06T03:57:36;22.30;88.50
5621;DHT22;2832;50.864;12.186;2022-07-06T04:00:05;22.20;87.50
5621;DHT22;2832;50.864;12.186;2022-07-06T04:02:34;22.20;87.40
5621;DHT22;2832;50.864;12.186;2022-07-06T04:05:01;22.20;87.40
5621;DHT22;2832;50.864;12.186;2022-07-06T04:07:30;22.10;87.50
5621;DHT22;2832;50.864;12.186;2022-07-06T04:09:58;22.10;87.80
5621;DHT22;2832;50.864;12.186;2022-07-06T04:12:26;22.10;88.10
5621;DHT22;2832;50.864;12.186;2022-07-06T04:14:57;22.00;88.40
5621;DHT22;2832;50.864;12.186;2022-07-06T04:17:25;21.90;88.50
5621;DHT22;2832;50.864;12.186;2022-07-06T04:20:10;21.90;88.60
5621;DHT22;2832;50.864;12.186;2022-07-06T04:22:39;22.00;88.80
5621;DHT22;2832;50.864;12.186;2022-07-06T04:25:08;21.90;88.90
5621;DHT22;2832;50.864;12.186;2022-07-06T04:27:36;21.90;89.20
5621;DHT22;2832;50.864;12.186;2022-07-06T04:30:06;21.90;89.30
5621;DHT22;2832;50.864;12.186;2022-07-06T04:32:35;21.90;89.50
5621;DHT22;2832;50.864;12.186;2022-07-06T04:35:04;21.80;89.70
5621;DHT22;2832;50.864;12.186;2022-07-06T04:37:32;21.90;89.70
5621;DHT22;2832;50.864;12.186;2022-07-06T04:40:00;21.90;89.70
5621;DHT22;2832;50.864;12.186;2022-07-06T04:42:27;21.90;89.70
5621;DHT22;2832;50.864;12.186;2022-07-06T04:44:55;21.90;89.80
5621;DHT22;2832;50.864;12.186;2022-07-06T04:47:25;21.90;89.60
5621;DHT22;2832;50.864;12.186;2022-07-06T04:49:53;21.90;89.50
5621;DHT22;2832;50.864;12.186;2022-07-06T04:52:21;21.90;89.20
5621;DHT22;2832;50.864;12.186;2022-07-06T04:54:48;21.90;88.60
5621;DHT22;2832;50.864;12.186;2022-07-06T04:57:16;21.90;88.10
5621;DHT22;2832;50.864;12.186;2022-07-06T04:59:44;21.90;87.70
5621;DHT22;2832;50.864;12.186;2022-07-06T05:02:12;21.80;87.60
5621;DHT22;2832;50.864;12.186;2022-07-06T05:04:41;21.90;87.60
5621;DHT22;2832;50.864;12.186;2022-07-06T05:07:09;21.80;87.30
5621;DHT22;2832;50.864;12.186;2022-07-06T05:09:36;21.80;87.00
5621;DHT22;2832;50.864;12.186;2022-07-06T05:12:05;21.80;87.00
5621;DHT22;2832;50.864;12.186;2022-07-06T05:14:32;21.80;87.00
5621;DHT22;2832;50.864;12.186;2022-07-06T05:17:00;21.80;87.00
5621;DHT22;2832;50.864;12.186;2022-07-06T05:19:28;21.80;86.90
5621;DHT22;2832;50.864;12.186;2022-07-06T05:21:57;21.80;86.90
5621;DHT22;2832;50.864;12.186;2022-07-06T05:24:25;21.70;87.00
5621;DHT22;2832;50.864;12.186;2022-07-06T05:26:52;21.80;87.00
5621;DHT22;2832;50.864;12.186;2022-07-06T05:29:20;21.70;86.90
5621;DHT22;2832;50.864;12.186;2022-07-06T05:31:48;21.70;87.00
5621;DHT22;2832;50.864;12.186;2022-07-06T05:34:16;21.80;87.10
5621;DHT22;2832;50.864;12.186;2022-07-06T05:36:43;21.80;87.20
5621;DHT22;2832;50.864;12.186;2022-07-06T05:39:43;21.70;87.20
5621;DHT22;2832;50.864;12.186;2022-07-06T05:42:13;21.80;87.60
5621;DHT22;2832;50.864;12.186;2022-07-06T05:44:41;21.80;87.60
5621;DHT22;2832;50.864;12.186;2022-07-06T05:47:08;21.70;87.40
5621;DHT22;2832;50.864;12.186;2022-07-06T05:49:53;21.80;87.50
5621;DHT22;2832;50.864;12.186;2022-07-06T05:52:40;21.70;87.60
5621;DHT22;2832;50.864;12.186;2022-07-06T05:55:11;21.70;87.70
5621;DHT22;2832;50.864;12.186;2022-07-06T05:57:39;21.70;87.60
5621;DHT22;2832;50.864;12.186;2022-07-06T06:00:08;21.80;87.60
5621;DHT22;2832;50.864;12.186;2022-07-06T06:02:37;21.80;87.60
5621;DHT22;2832;50.864;12.186;2022-07-06T06:05:06;21.70;87.80
5621;DHT22;2832;50.864;12.186;2022-07-06T06:07:35;21.80;87.90
5621;DHT22;2832;50.864;12.186;2022-07-06T06:10:04;21.70;87.30
5621;DHT22;2832;50.864;12.186;2022-07-06T06:12:33;21.60;87.80
5621;DHT22;2832;50.864;12.186;2022-07-06T06:15:01;21.60;88.10
5621;DHT22;2832;50.864;12.186;2022-07-06T06:17:29;21.70;88.10
5621;DHT22;2832;50.864;12.186;2022-07-06T06:19:58;21.70;88.00
5621;DHT22;2832;50.864;12.186;2022-07-06T06:22:27;21.70;87.80
5621;DHT22;2832;50.864;12.186;2022-07-06T06:24:55;21.80;87.60
5621;DHT22;2832;50.864;12.186;2022-07-06T06:27:22;21.80;87.50
5621;DHT22;2832;50.864;12.186;2022-07-06T06:29:52;21.90;87.70
5621;DHT22;2832;50.864;12.186;2022-07-06T06:32:20;21.50;87.70
5621;DHT22;2832;50.864;12.186;2022-07-06T06:34:48;21.50;88.60
5621;DHT22;2832;50.864;12.186;2022-07-06T06:37:15;21.60;88.70
5621;DHT22;2832;50.864;12.186;2022-07-06T06:39:43;21.70;88.70
5621;DHT22;2832;50.864;12.186;2022-07-06T06:42:11;21.80;88.60
5621;DHT22;2832;50.864;12.186;2022-07-06T06:44:39;21.80;88.30
5621;DHT22;2832;50.864;12.186;2022-07-06T06:47:08;21.80;88.20
5621;DHT22;2832;50.864;12.186;2022-07-06T06:49:36;21.80;88.00
5621;DHT22;2832;50.864;12.186;2022-07-06T06:52:04;21.80;87.80
5621;DHT22;2832;50.864;12.186;2022-07-06T06:54:32;21.80;87.80
5621;DHT22;2832;50.864;12.186;2022-07-06T06:57:01;21.80;87.70
5621;DHT22;2832;50.864;12.186;2022-07-06T06:59:28;21.80;87.70
5621;DHT22;2832;50.864;12.186;2022-07-06T07:01:56;21.80;87.30
5621;DHT22;2832;50.864;12.186;2022-07-06T07:04:26;21.80;86.50
5621;DHT22;2832;50.864;12.186;2022-07-06T07:06:55;21.80;86.00
5621;DHT22;2832;50.864;12.186;2022-07-06T07:09:23;21.80;85.70
5621;DHT22;2832;50.864;12.186;2022-07-06T07:11:50;21.70;84.90
5621;DHT22;2832;50.864;12.186;2022-07-06T07:14:20;21.50;85.60
5621;DHT22;2832;50.864;12.186;2022-07-06T07:16:50;21.50;86.40
5621;DHT22;2832;50.864;12.186;2022-07-06T07:19:17;21.50;86.40
5621;DHT22;2832;50.864;12.186;2022-07-06T07:21:47;21.70;86.50
5621;DHT22;2832;50.864;12.186;2022-07-06T07:24:14;21.80;86.50
5621;DHT22;2832;50.864;12.186;2022-07-06T07:26:42;21.80;86.50
5621;DHT22;2832;50.864;12.186;2022-07-06T07:29:10;21.80;86.60
5621;DHT22;2832;50.864;12.186;2022-07-06T07:31:38;21.80;86.80
5621;DHT22;2832;50.864;12.186;2022-07-06T07:34:05;21.90;87.00
5621;DHT22;2832;50.864;12.186;2022-07-06T07:36:33;21.90;86.80
5621;DHT22;2832;50.864;12.186;2022-07-06T07:39:03;21.90;86.90
5621;DHT22;2832;50.864;12.186;2022-07-06T07:41:31;21.90;86.80
5621;DHT22;2832;50.864;12.186;2022-07-06T07:43:59;22.00;86.80
5621;DHT22;2832;50.864;12.186;2022-07-06T07:46:26;22.00;86.70
5621;DHT22;2832;50.864;12.186;2022-07-06T07:48:54;21.90;87.10
5621;DHT22;2832;50.864;12.186;2022-07-06T07:51:22;21.90;87.30
5621;DHT22;2832;50.864;12.186;2022-07-06T07:53:50;21.80;87.50
5621;DHT22;2832;50.864;12.186;2022-07-06T07:56:19;21.80;87.70
5621;DHT22;2832;50.864;12.186;2022-07-06T07:58:47;21.80;87.80
5621;DHT22;2832;50.864;12.186;2022-07-06T08:01:15;21.80;87.90
5621;DHT22;2832;50.864;12.186;2022-07-06T08:03:42;21.80;87.90
5621;DHT22;2832;50.864;12.186;2022-07-06T08:06:10;21.80;87.90
5621;DHT22;2832;50.864;12.186;2022-07-06T08:08:38;21.80;88.20
5621;DHT22;2832;50.864;12.186;2022-07-06T08:11:06;21.70;88.30
5621;DHT22;2832;50.864;12.186;2022-07-06T08:13:37;21.80;88.60
5621;DHT22;2832;50.864;12.186;2022-07-06T08:16:05;21.80;88.50
5621;DHT22;2832;50.864;12.186;2022-07-06T08:18:33;21.80;88.50
5621;DHT22;2832;50.864;12.186;2022-07-06T08:21:01;21.90;88.30
5621;DHT22;2832;50.864;12.186;2022-07-06T08:23:29;21.90;88.10
5621;DHT22;2832;50.864;12.186;2022-07-06T08:25:57;21.90;87.90
5621;DHT22;2832;50.864;12.186;2022-07-06T08:28:24;21.90;87.90
5621;DHT22;2832;50.864;12.186;2022-07-06T08:30:54;21.90;88.00
5621;DHT22;2832;50.864;12.186;2022-07-06T08:33:22;21.90;87.90
5621;DHT22;2832;50.864;12.186;2022-07-06T08:35:51;21.70;86.00
5621;DHT22;2832;50.864;12.186;2022-07-06T08:38:19;21.60;87.70
5621;DHT22;2832;50.864;12.186;2022-07-06T08:40:49;21.70;86.00
5621;DHT22;2832;50.864;12.186;2022-07-06T08:43:17;21.60;86.50
5621;DHT22;2832;50.864;12.186;2022-07-06T08:45:46;21.70;86.40
5621;DHT22;2832;50.864;12.186;2022-07-06T08:48:20;21.70;86.70
5621;DHT22;2832;50.864;12.186;2022-07-06T08:50:52;21.30;84.50
5621;DHT22;2832;50.864;12.186;2022-07-06T08:53:23;20.90;85.50
5621;DHT22;2832;50.864;12.186;2022-07-06T08:55:51;20.70;87.30
5621;DHT22;2832;50.864;12.186;2022-07-06T08:58:20;21.00;87.40
5621;DHT22;2832;50.864;12.186;2022-07-06T09:00:48;21.00;85.80
5621;DHT22;2832;50.864;12.186;2022-07-06T09:03:18;20.80;85.30
5621;DHT22;2832;50.864;12.186;2022-07-06T09:05:47;20.50;86.00
5621;DHT22;2832;50.864;12.186;2022-07-06T09:08:15;20.30;86.30
5621;DHT22;2832;50.864;12.186;2022-07-06T09:10:43;20.40;87.70
5621;DHT22;2832;50.864;12.186;2022-07-06T09:13:11;20.50;86.60
5621;DHT22;2832;50.864;12.186;2022-07-06T09:15:38;20.30;86.30
5621;DHT22;2832;50.864;12.186;2022-07-06T09:18:07;20.50;87.60
5621;DHT22;2832;50.864;12.186;2022-07-06T09:20:38;20.70;87.30
5621;DHT22;2832;50.864;12.186;2022-07-06T09:23:07;20.90;86.80
5621;DHT22;2832;50.864;12.186;2022-07-06T09:25:35;21.10;86.10
5621;DHT22;2832;50.864;12.186;2022-07-06T09:28:04;21.30;85.60
5621;DHT22;2832;50.864;12.186;2022-07-06T09:30:32;21.40;85.30
5621;DHT22;2832;50.864;12.186;2022-07-06T09:33:08;21.60;84.70
5621;DHT22;2832;50.864;12.186;2022-07-06T09:35:38;21.70;84.10
5621;DHT22;2832;50.864;12.186;2022-07-06T09:38:07;21.80;83.60
5621;DHT22;2832;50.864;12.186;2022-07-06T09:40:35;21.90;82.50
5621;DHT22;2832;50.864;12.186;2022-07-06T09:43:14;21.90;82.10
5621;DHT22;2832;50.864;12.186;2022-07-06T09:45:44;22.00;82.10
5621;DHT22;2832;50.864;12.186;2022-07-06T09:48:14;22.00;81.80
5621;DHT22;2832;50.864;12.186;2022-07-06T09:50:47;22.00;82.10
5621;DHT22;2832;50.864;12.186;2022-07-06T09:53:18;22.00;82.00
5621;DHT22;2832;50.864;12.186;2022-07-06T09:55:50;22.10;82.10
5621;DHT22;2832;50.864;12.186;2022-07-06T09:58:18;22.00;81.80
5621;DHT22;2832;50.864;12.186;2022-07-06T10:00:48;22.00;81.60
5621;DHT22;2832;50.864;12.186;2022-07-06T10:03:17;21.90;81.40
5621;DHT22;2832;50.864;12.186;2022-07-06T10:05:48;21.80;81.50
5621;DHT22;2832;50.864;12.186;2022-07-06T10:08:18;21.80;81.50
5621;DHT22;2832;50.864;12.186;2022-07-06T10:10:47;21.90;81.90
5621;DHT22;2832;50.864;12.186;2022-07-06T10:13:19;21.90;81.20
5621;DHT22;2832;50.864;12.186;2022-07-06T10:15:49;21.80;81.20
5621;DHT22;2832;50.864;12.186;2022-07-06T10:18:17;21.80;81.00
5621;DHT22;2832;50.864;12.186;2022-07-06T10:20:47;21.80;81.90
5621;DHT22;2832;50.864;12.186;2022-07-06T10:23:15;21.90;82.40
5621;DHT22;2832;50.864;12.186;2022-07-06T10:25:47;22.00;82.10
5621;DHT22;2832;50.864;12.186;2022-07-06T10:28:16;22.20;81.30
5621;DHT22;2832;50.864;12.186;2022-07-06T10:30:45;22.10;80.70
5621;DHT22;2832;50.864;12.186;2022-07-06T10:33:14;22.00;80.00
5621;DHT22;2832;50.864;12.186;2022-07-06T10:35:43;21.80;80.50
5621;DHT22;2832;50.864;12.186;2022-07-06T10:38:12;21.90;81.80
5621;DHT22;2832;50.864;12.186;2022-07-06T10:40:42;21.80;79.90
5621;DHT22;2832;50.864;12.186;2022-07-06T10:43:35;21.50;79.80
5621;DHT22;2832;50.864;12.186;2022-07-06T10:46:08;21.50;81.70
5621;DHT22;2832;50.864;12.186;2022-07-06T10:48:37;21.60;82.60
5621;DHT22;2832;50.864;12.186;2022-07-06T10:51:05;21.80;82.00
5621;DHT22;2832;50.864;12.186;2022-07-06T10:53:35;21.90;82.50
5621;DHT22;2832;50.864;12.186;2022-07-06T10:56:06;22.10;82.40
5621;DHT22;2832;50.864;12.186;2022-07-06T10:58:35;22.20;82.10
5621;DHT22;2832;50.864;12.186;2022-07-06T11:01:04;22.20;78.90
5621;DHT22;2832;50.864;12.186;2022-07-06T11:03:37;21.80;79.40
5621;DHT22;2832;50.864;12.186;2022-07-06T11:06:08;21.70;80.50
5621;DHT22;2832;50.864;12.186;2022-07-06T11:08:45;21.70;81.70
5621;DHT22;2832;50.864;12.186;2022-07-06T11:11:14;21.80;81.00
5621;DHT22;2832;50.864;12.186;2022-07-06T11:13:47;21.80;79.50
5621;DHT22;2832;50.864;12.186;2022-07-06T11:16:16;21.90;81.00
5621;DHT22;2832;50.864;12.186;2022-07-06T11:18:47;22.00;81.80
5621;DHT22;2832;50.864;12.186;2022-07-06T11:21:17;22.20;82.20
5621;DHT22;2832;50.864;12.186;2022-07-06T11:23:48;22.30;82.20
5621;DHT22;2832;50.864;12.186;2022-07-06T11:26:16;22.40;82.20
5621;DHT22;2832;50.864;12.186;2022-07-06T11:28:46;22.50;82.10
5621;DHT22;2832;50.864;12.186;2022-07-06T11:31:15;22.60;82.00
5621;DHT22;2832;50.864;12.186;2022-07-06T11:33:45;22.60;81.30
5621;DHT22;2832;50.864;12.186;2022-07-06T11:36:18;22.70;80.60
5621;DHT22;2832;50.864;12.186;2022-07-06T11:38:48;22.60;79.60
5621;DHT22;2832;50.864;12.186;2022-07-06T11:41:17;22.60;80.70
5621;DHT22;2832;50.864;12.186;2022-07-06T11:43:46;22.60;80.20
5621;DHT22;2832;50.864;12.186;2022-07-06T11:46:22;22.70;79.20
5621;DHT22;2832;50.864;12.186;2022-07-06T11:48:51;22.70;77.60
5621;DHT22;2832;50.864;12.186;2022-07-06T11:51:21;22.50;78.60
5621;DHT22;2832;50.864;12.186;2022-07-06T11:53:52;22.60;78.00
5621;DHT22;2832;50.864;12.186;2022-07-06T11:56:21;22.60;79.80
5621;DHT22;2832;50.864;12.186;2022-07-06T11:58:53;22.70;79.30
5621;DHT22;2832;50.864;12.186;2022-07-06T12:01:22;22.70;80.60
5621;DHT22;2832;50.864;12.186;2022-07-06T12:03:51;22.70;79.10
5621;DHT22;2832;50.864;12.186;2022-07-06T12:06:20;22.80;80.00
5621;DHT22;2832;50.864;12.186;2022-07-06T12:08:51;22.80;79.30
5621;DHT22;2832;50.864;12.186;2022-07-06T12:11:21;22.70;75.70
5621;DHT22;2832;50.864;12.186;2022-07-06T12:13:50;22.80;79.40
5621;DHT22;2832;50.864;12.186;2022-07-06T12:16:21;22.90;79.50
5621;DHT22;2832;50.864;12.186;2022-07-06T12:18:50;22.90;79.30
5621;DHT22;2832;50.864;12.186;2022-07-06T12:21:20;22.90;77.80
5621;DHT22;2832;50.864;12.186;2022-07-06T12:23:51;22.90;76.20
5621;DHT22;2832;50.864;12.186;2022-07-06T12:26:21;23.00;78.20
5621;DHT22;2832;50.864;12.186;2022-07-06T12:29:02;23.10;79.00
5621;DHT22;2832;50.864;12.186;2022-07-06T12:31:33;23.10;78.70
5621;DHT22;2832;50.864;12.186;2022-07-06T12:34:01;23.20;78.40
5621;DHT22;2832;50.864;12.186;2022-07-06T12:36:29;23.20;78.10
5621;DHT22;2832;50.864;12.186;2022-07-06T12:38:58;23.20;75.40
5621;DHT22;2832;50.864;12.186;2022-07-06T12:41:28;23.20;76.50
5621;DHT22;2832;50.864;12.186;2022-07-06T12:44:07;23.20;72.50
5621;DHT22;2832;50.864;12.186;2022-07-06T12:46:37;22.90;70.50
5621;DHT22;2832;50.864;12.186;2022-07-06T12:49:16;22.80;74.50
5621;DHT22;2832;50.864;12.186;2022-07-06T12:51:55;22.80;76.40
5621;DHT22;2832;50.864;12.186;2022-07-06T12:54:30;22.80;73.90
5621;DHT22;2832;50.864;12.186;2022-07-06T12:57:01;23.00;76.60
5621;DHT22;2832;50.864;12.186;2022-07-06T12:59:29;23.10;76.10
5621;DHT22;2832;50.864;12.186;2022-07-06T13:01:57;23.10;76.70
5621;DHT22;2832;50.864;12.186;2022-07-06T13:04:26;23.20;76.40
5621;DHT22;2832;50.864;12.186;2022-07-06T13:06:59;23.30;75.80
5621;DHT22;2832;50.864;12.186;2022-07-06T13:09:34;23.20;72.30
5621;DHT22;2832;50.864;12.186;2022-07-06T13:12:04;23.30;75.70
5621;DHT22;2832;50.864;12.186;2022-07-06T13:14:32;23.30;76.20
5621;DHT22;2832;50.864;12.186;2022-07-06T13:17:00;23.40;74.90
5621;DHT22;2832;50.864;12.186;2022-07-06T13:19:28;23.40;75.50
5621;DHT22;2832;50.864;12.186;2022-07-06T13:21:55;23.40;75.30
5621;DHT22;2832;50.864;12.186;2022-07-06T13:24:23;23.50;73.20
5621;DHT22;2832;50.864;12.186;2022-07-06T13:26:55;23.40;73.10
5621;DHT22;2832;50.864;12.186;2022-07-06T13:29:26;23.30;70.20
5621;DHT22;2832;50.864;12.186;2022-07-06T13:31:54;23.20;71.10
5621;DHT22;2832;50.864;12.186;2022-07-06T13:34:21;23.20;74.50
5621;DHT22;2832;50.864;12.186;2022-07-06T13:36:52;23.30;73.30
5621;DHT22;2832;50.864;12.186;2022-07-06T13:39:20;23.20;72.20
5621;DHT22;2832;50.864;12.186;2022-07-06T13:41:48;23.30;73.40
5621;DHT22;2832;50.864;12.186;2022-07-06T13:44:17;23.40;74.30
5621;DHT22;2832;50.864;12.186;2022-07-06T13:46:45;23.40;73.50
5621;DHT22;2832;50.864;12.186;2022-07-06T13:49:13;23.40;73.80
5621;DHT22;2832;50.864;12.186;2022-07-06T13:51:41;23.30;67.60
5621;DHT22;2832;50.864;12.186;2022-07-06T13:54:08;23.30;72.60
5621;DHT22;2832;50.864;12.186;2022-07-06T13:56:38;23.30;73.00
5621;DHT22;2832;50.864;12.186;2022-07-06T13:59:06;23.40;72.90
5621;DHT22;2832;50.864;12.186;2022-07-06T14:01:35;23.40;72.50
5621;DHT22;2832;50.864;12.186;2022-07-06T14:04:03;23.50;71.60
5621;DHT22;2832;50.864;12.186;2022-07-06T14:06:31;23.50;71.60
5621;DHT22;2832;50.864;12.186;2022-07-06T14:09:00;23.50;70.70
5621;DHT22;2832;50.864;12.186;2022-07-06T14:11:29;23.40;69.60
5621;DHT22;2832;50.864;12.186;2022-07-06T14:13:57;23.30;68.40
5621;DHT22;2832;50.864;12.186;2022-07-06T14:16:24;23.40;69.00
5621;DHT22;2832;50.864;12.186;2022-07-06T14:18:54;23.30;70.00
5621;DHT22;2832;50.864;12.186;2022-07-06T14:21:22;23.40;71.40
5621;DHT22;2832;50.864;12.186;2022-07-06T14:23:49;23.50;71.00
5621;DHT22;2832;50.864;12.186;2022-07-06T14:26:17;23.50;71.50
5621;DHT22;2832;50.864;12.186;2022-07-06T14:28:48;23.60;71.10
5621;DHT22;2832;50.864;12.186;2022-07-06T14:31:22;23.60;70.20
5621;DHT22;2832;50.864;12.186;2022-07-06T14:33:54;23.70;70.10
5621;DHT22;2832;50.864;12.186;2022-07-06T14:36:21;23.70;69.80
5621;DHT22;2832;50.864;12.186;2022-07-06T14:38:49;23.70;69.10
5621;DHT22;2832;50.864;12.186;2022-07-06T14:41:17;23.80;69.50
5621;DHT22;2832;50.864;12.186;2022-07-06T14:43:44;23.80;69.50
5621;DHT22;2832;50.864;12.186;2022-07-06T14:46:12;23.80;69.70
5621;DHT22;2832;50.864;12.186;2022-07-06T14:48:40;23.90;69.60
5621;DHT22;2832;50.864;12.186;2022-07-06T14:51:09;23.90;69.20
5621;DHT22;2832;50.864;12.186;2022-07-06T14:53:37;23.80;68.10
5621;DHT22;2832;50.864;12.186;2022-07-06T14:56:06;23.80;69.50
5621;DHT22;2832;50.864;12.186;2022-07-06T14:58:34;23.80;69.50
5621;DHT22;2832;50.864;12.186;2022-07-06T15:01:02;23.80;67.80
5621;DHT22;2832;50.864;12.186;2022-07-06T15:03:29;23.80;67.00
5621;DHT22;2832;50.864;12.186;2022-07-06T15:05:58;23.60;65.10
5621;DHT22;2832;50.864;12.186;2022-07-06T15:08:27;23.60;67.90
5621;DHT22;2832;50.864;12.186;2022-07-06T15:10:55;23.60;69.00
5621;DHT22;2832;50.864;12.186;2022-07-06T15:13:23;23.60;68.80
5621;DHT22;2832;50.864;12.186;2022-07-06T15:15:51;23.70;67.60
5621;DHT22;2832;50.864;12.186;2022-07-06T15:18:18;23.70;68.00
5621;DHT22;2832;50.864;12.186;2022-07-06T15:20:46;23.80;69.10
5621;DHT22;2832;50.864;12.186;2022-07-06T15:23:14;23.70;65.80
5621;DHT22;2832;50.864;12.186;2022-07-06T15:25:43;23.60;65.10
5621;DHT22;2832;50.864;12.186;2022-07-06T15:28:11;23.40;63.00
5621;DHT22;2832;50.864;12.186;2022-07-06T15:30:39;23.10;63.20
5621;DHT22;2832;50.864;12.186;2022-07-06T15:33:07;22.90;64.10
5621;DHT22;2832;50.864;12.186;2022-07-06T15:35:35;23.00;66.30
5621;DHT22;2832;50.864;12.186;2022-07-06T15:38:04;23.00;68.00
5621;DHT22;2832;50.864;12.186;2022-07-06T15:40:33;23.20;68.60
5621;DHT22;2832;50.864;12.186;2022-07-06T15:43:08;23.30;67.70
5621;DHT22;2832;50.864;12.186;2022-07-06T15:45:35;23.40;67.20
5621;DHT22;2832;50.864;12.186;2022-07-06T15:48:03;23.50;67.30
5621;DHT22;2832;50.864;12.186;2022-07-06T15:50:31;23.60;68.20
5621;DHT22;2832;50.864;12.186;2022-07-06T15:53:00;23.50;66.80
5621;DHT22;2832;50.864;12.186;2022-07-06T15:55:29;23.50;66.00